AL93 weather

Big Sky Airport
Huntsville, Alabama, United States

Public forecast

Using degrees Fahrenheit for public forecast. Weather courtesy of forecast.io.

Closest aviation weather report (METAR) to Big Sky Airport

Closest report is Madison County Executive Airport-Tom Sharp Jr Field, 7.7 nm (14.2 km) E. Retrieved 2019/10/17 16:35 UTC (0 seconds ago):

KMDQ 171635Z AUTO 16004KT 10SM CLR 13/03 A3009 RMK A02 T01280026

Closest aviation forecast (TAF) to Big Sky Airport

Closest forecast is Huntsville International Carl T Jones Field, 15.3 nm (28.3 km) SSW. Retrieved 2019/10/17 12:30 UTC (4 hours ago):

TAF KHSV 171126Z 1712/1812 35005KT P6SM SKC FM180000 03003KT P6SM SCT250